sensor_id;sensor_type;location;lat;lon;timestamp;P1;durP1;ratioP1;P2;durP2;ratioP2
5841;SDS011;2947;52.276;9.946;2024-03-02T00:02:14;19.73;;;10.57;;
5841;SDS011;2947;52.276;9.946;2024-03-02T00:04:40;20.73;;;12.10;;
5841;SDS011;2947;52.276;9.946;2024-03-02T00:07:09;17.90;;;10.63;;
5841;SDS011;2947;52.276;9.946;2024-03-02T00:09:35;22.40;;;12.10;;
5841;SDS011;2947;52.276;9.946;2024-03-02T00:12:01;19.97;;;11.93;;
5841;SDS011;2947;52.276;9.946;2024-03-02T00:14:30;25.40;;;13.47;;
5841;SDS011;2947;52.276;9.946;2024-03-02T00:16:57;22.13;;;11.47;;
5841;SDS011;2947;52.276;9.946;2024-03-02T00:19:24;21.40;;;11.77;;
5841;SDS011;2947;52.276;9.946;2024-03-02T00:21:50;22.13;;;13.00;;
5841;SDS011;2947;52.276;9.946;2024-03-02T00:26:58;24.53;;;12.50;;
5841;SDS011;2947;52.276;9.946;2024-03-02T00:29:25;23.77;;;13.17;;
5841;SDS011;2947;52.276;9.946;2024-03-02T00:31:51;23.93;;;12.93;;
5841;SDS011;2947;52.276;9.946;2024-03-02T00:34:18;24.77;;;13.33;;
5841;SDS011;2947;52.276;9.946;2024-03-02T00:36:44;28.47;;;14.60;;
5841;SDS011;2947;52.276;9.946;2024-03-02T00:39:11;25.30;;;12.90;;
5841;SDS011;2947;52.276;9.946;2024-03-02T00:41:40;25.60;;;14.20;;
5841;SDS011;2947;52.276;9.946;2024-03-02T00:44:10;25.97;;;13.83;;
5841;SDS011;2947;52.276;9.946;2024-03-02T00:46:38;23.57;;;13.83;;
5841;SDS011;2947;52.276;9.946;2024-03-02T00:49:11;32.50;;;14.97;;
5841;SDS011;2947;52.276;9.946;2024-03-02T00:51:48;31.37;;;14.40;;
5841;SDS011;2947;52.276;9.946;2024-03-02T00:54:19;24.70;;;14.50;;
5841;SDS011;2947;52.276;9.946;2024-03-02T00:56:49;23.47;;;13.20;;
5841;SDS011;2947;52.276;9.946;2024-03-02T00:59:16;29.07;;;14.10;;
5841;SDS011;2947;52.276;9.946;2024-03-02T01:01:42;25.20;;;13.33;;
5841;SDS011;2947;52.276;9.946;2024-03-02T01:04:08;27.47;;;14.70;;
5841;SDS011;2947;52.276;9.946;2024-03-02T01:06:34;29.37;;;15.40;;
5841;SDS011;2947;52.276;9.946;2024-03-02T01:09:00;29.20;;;13.10;;
5841;SDS011;2947;52.276;9.946;2024-03-02T01:11:27;30.53;;;14.40;;
5841;SDS011;2947;52.276;9.946;2024-03-02T01:13:53;24.10;;;13.50;;
5841;SDS011;2947;52.276;9.946;2024-03-02T01:16:19;25.67;;;14.00;;
5841;SDS011;2947;52.276;9.946;2024-03-02T01:18:45;30.80;;;14.43;;
5841;SDS011;2947;52.276;9.946;2024-03-02T01:21:11;31.13;;;14.60;;
5841;SDS011;2947;52.276;9.946;2024-03-02T01:23:37;27.90;;;14.43;;
5841;SDS011;2947;52.276;9.946;2024-03-02T01:26:02;27.07;;;14.70;;
5841;SDS011;2947;52.276;9.946;2024-03-02T01:28:28;24.60;;;14.27;;
5841;SDS011;2947;52.276;9.946;2024-03-02T01:30:54;25.77;;;15.07;;
5841;SDS011;2947;52.276;9.946;2024-03-02T01:33:20;27.40;;;14.90;;
5841;SDS011;2947;52.276;9.946;2024-03-02T01:35:46;27.50;;;14.40;;
5841;SDS011;2947;52.276;9.946;2024-03-02T01:38:12;28.63;;;16.17;;
5841;SDS011;2947;52.276;9.946;2024-03-02T01:40:38;30.53;;;14.57;;
5841;SDS011;2947;52.276;9.946;2024-03-02T01:43:05;24.27;;;14.50;;
5841;SDS011;2947;52.276;9.946;2024-03-02T01:45:31;29.73;;;15.07;;
5841;SDS011;2947;52.276;9.946;2024-03-02T01:47:57;26.90;;;14.57;;
5841;SDS011;2947;52.276;9.946;2024-03-02T01:52:54;29.70;;;16.23;;
5841;SDS011;2947;52.276;9.946;2024-03-02T01:55:24;27.83;;;16.27;;
5841;SDS011;2947;52.276;9.946;2024-03-02T01:57:50;25.83;;;14.73;;
5841;SDS011;2947;52.276;9.946;2024-03-02T02:00:17;26.30;;;14.40;;
5841;SDS011;2947;52.276;9.946;2024-03-02T02:02:44;29.23;;;14.93;;
5841;SDS011;2947;52.276;9.946;2024-03-02T02:05:10;30.37;;;15.47;;
5841;SDS011;2947;52.276;9.946;2024-03-02T02:07:36;31.93;;;14.10;;
5841;SDS011;2947;52.276;9.946;2024-03-02T02:10:02;31.00;;;15.93;;
5841;SDS011;2947;52.276;9.946;2024-03-02T02:12:28;30.33;;;15.93;;
5841;SDS011;2947;52.276;9.946;2024-03-02T02:14:54;26.30;;;15.23;;
5841;SDS011;2947;52.276;9.946;2024-03-02T02:17:20;27.00;;;14.20;;
5841;SDS011;2947;52.276;9.946;2024-03-02T02:19:45;26.50;;;14.50;;
5841;SDS011;2947;52.276;9.946;2024-03-02T02:22:11;27.33;;;14.70;;
5841;SDS011;2947;52.276;9.946;2024-03-02T02:24:43;28.97;;;15.13;;
5841;SDS011;2947;52.276;9.946;2024-03-02T02:27:09;28.93;;;15.90;;
5841;SDS011;2947;52.276;9.946;2024-03-02T02:29:35;29.30;;;15.63;;
5841;SDS011;2947;52.276;9.946;2024-03-02T02:32:02;29.07;;;15.07;;
5841;SDS011;2947;52.276;9.946;2024-03-02T02:34:28;28.00;;;15.23;;
5841;SDS011;2947;52.276;9.946;2024-03-02T02:36:53;25.80;;;14.20;;
5841;SDS011;2947;52.276;9.946;2024-03-02T02:39:20;28.87;;;14.63;;
5841;SDS011;2947;52.276;9.946;2024-03-02T02:41:50;27.43;;;15.10;;
5841;SDS011;2947;52.276;9.946;2024-03-02T02:44:16;31.10;;;16.00;;
5841;SDS011;2947;52.276;9.946;2024-03-02T02:46:41;30.13;;;14.90;;
5841;SDS011;2947;52.276;9.946;2024-03-02T02:49:07;27.47;;;15.10;;
5841;SDS011;2947;52.276;9.946;2024-03-02T02:51:33;28.37;;;14.17;;
5841;SDS011;2947;52.276;9.946;2024-03-02T02:53:59;31.43;;;14.90;;
5841;SDS011;2947;52.276;9.946;2024-03-02T02:56:24;28.17;;;13.67;;
5841;SDS011;2947;52.276;9.946;2024-03-02T02:58:50;28.43;;;14.90;;
5841;SDS011;2947;52.276;9.946;2024-03-02T03:01:16;28.43;;;15.03;;
5841;SDS011;2947;52.276;9.946;2024-03-02T03:03:43;30.13;;;14.97;;
5841;SDS011;2947;52.276;9.946;2024-03-02T03:06:09;27.50;;;14.17;;
5841;SDS011;2947;52.276;9.946;2024-03-02T03:08:35;29.40;;;14.97;;
5841;SDS011;2947;52.276;9.946;2024-03-02T03:11:01;28.27;;;14.87;;
5841;SDS011;2947;52.276;9.946;2024-03-02T03:13:27;28.40;;;14.70;;
5841;SDS011;2947;52.276;9.946;2024-03-02T03:15:53;29.50;;;15.10;;
5841;SDS011;2947;52.276;9.946;2024-03-02T03:18:19;26.23;;;15.07;;
5841;SDS011;2947;52.276;9.946;2024-03-02T03:20:44;26.47;;;14.50;;
5841;SDS011;2947;52.276;9.946;2024-03-02T03:23:10;27.33;;;14.70;;
5841;SDS011;2947;52.276;9.946;2024-03-02T03:25:41;28.07;;;15.93;;
5841;SDS011;2947;52.276;9.946;2024-03-02T03:28:10;30.13;;;15.53;;
5841;SDS011;2947;52.276;9.946;2024-03-02T03:30:36;32.23;;;15.30;;
5841;SDS011;2947;52.276;9.946;2024-03-02T03:33:03;28.77;;;14.97;;
5841;SDS011;2947;52.276;9.946;2024-03-02T03:35:31;26.83;;;14.40;;
5841;SDS011;2947;52.276;9.946;2024-03-02T03:37:57;30.87;;;15.17;;
5841;SDS011;2947;52.276;9.946;2024-03-02T03:40:23;26.17;;;13.87;;
5841;SDS011;2947;52.276;9.946;2024-03-02T03:42:49;31.80;;;15.13;;
5841;SDS011;2947;52.276;9.946;2024-03-02T03:45:15;25.83;;;14.10;;
5841;SDS011;2947;52.276;9.946;2024-03-02T03:47:41;31.20;;;15.20;;
5841;SDS011;2947;52.276;9.946;2024-03-02T03:50:07;31.00;;;14.90;;
5841;SDS011;2947;52.276;9.946;2024-03-02T03:52:33;29.60;;;16.63;;
5841;SDS011;2947;52.276;9.946;2024-03-02T03:54:58;29.57;;;14.93;;
5841;SDS011;2947;52.276;9.946;2024-03-02T03:57:25;29.70;;;16.10;;
5841;SDS011;2947;52.276;9.946;2024-03-02T03:59:51;27.23;;;14.90;;
5841;SDS011;2947;52.276;9.946;2024-03-02T04:02:17;29.47;;;16.20;;
5841;SDS011;2947;52.276;9.946;2024-03-02T04:04:43;29.60;;;15.07;;
5841;SDS011;2947;52.276;9.946;2024-03-02T04:07:09;30.17;;;15.20;;
5841;SDS011;2947;52.276;9.946;2024-03-02T04:09:35;28.87;;;15.80;;
5841;SDS011;2947;52.276;9.946;2024-03-02T04:12:00;31.97;;;15.77;;
5841;SDS011;2947;52.276;9.946;2024-03-02T04:14:28;30.00;;;15.97;;
5841;SDS011;2947;52.276;9.946;2024-03-02T04:16:53;33.40;;;17.00;;
5841;SDS011;2947;52.276;9.946;2024-03-02T04:19:19;28.43;;;14.87;;
5841;SDS011;2947;52.276;9.946;2024-03-02T04:21:45;29.60;;;14.53;;
5841;SDS011;2947;52.276;9.946;2024-03-02T04:24:10;27.63;;;15.10;;
5841;SDS011;2947;52.276;9.946;2024-03-02T04:26:36;27.87;;;13.90;;
5841;SDS011;2947;52.276;9.946;2024-03-02T04:29:02;32.23;;;15.30;;
5841;SDS011;2947;52.276;9.946;2024-03-02T04:31:27;28.97;;;15.07;;
5841;SDS011;2947;52.276;9.946;2024-03-02T04:33:53;29.93;;;15.07;;
5841;SDS011;2947;52.276;9.946;2024-03-02T04:36:19;26.83;;;15.83;;
5841;SDS011;2947;52.276;9.946;2024-03-02T04:38:46;27.07;;;15.07;;
5841;SDS011;2947;52.276;9.946;2024-03-02T04:41:12;26.77;;;15.57;;
5841;SDS011;2947;52.276;9.946;2024-03-02T04:43:37;31.30;;;15.23;;
5841;SDS011;2947;52.276;9.946;2024-03-02T04:46:05;27.17;;;14.10;;
5841;SDS011;2947;52.276;9.946;2024-03-02T04:48:32;30.20;;;14.83;;
5841;SDS011;2947;52.276;9.946;2024-03-02T04:50:58;28.57;;;14.57;;
5841;SDS011;2947;52.276;9.946;2024-03-02T04:53:23;23.67;;;14.50;;
5841;SDS011;2947;52.276;9.946;2024-03-02T04:55:49;26.40;;;14.30;;
5841;SDS011;2947;52.276;9.946;2024-03-02T04:58:20;26.63;;;14.60;;
5841;SDS011;2947;52.276;9.946;2024-03-02T05:00:46;29.47;;;14.97;;
5841;SDS011;2947;52.276;9.946;2024-03-02T05:03:12;30.77;;;15.57;;
5841;SDS011;2947;52.276;9.946;2024-03-02T05:05:38;27.90;;;15.50;;
5841;SDS011;2947;52.276;9.946;2024-03-02T05:08:04;30.20;;;14.10;;
5841;SDS011;2947;52.276;9.946;2024-03-02T05:10:30;32.93;;;17.17;;
5841;SDS011;2947;52.276;9.946;2024-03-02T05:12:56;31.07;;;15.83;;
5841;SDS011;2947;52.276;9.946;2024-03-02T05:15:22;29.87;;;15.13;;
5841;SDS011;2947;52.276;9.946;2024-03-02T05:17:48;31.20;;;15.73;;
5841;SDS011;2947;52.276;9.946;2024-03-02T05:20:13;35.20;;;16.27;;
5841;SDS011;2947;52.276;9.946;2024-03-02T05:22:39;31.83;;;16.43;;
5841;SDS011;2947;52.276;9.946;2024-03-02T05:25:05;30.93;;;16.83;;
5841;SDS011;2947;52.276;9.946;2024-03-02T05:27:32;33.63;;;16.00;;
5841;SDS011;2947;52.276;9.946;2024-03-02T05:29:58;31.37;;;16.77;;
5841;SDS011;2947;52.276;9.946;2024-03-02T05:32:24;29.77;;;16.27;;
5841;SDS011;2947;52.276;9.946;2024-03-02T05:34:50;31.67;;;15.40;;
5841;SDS011;2947;52.276;9.946;2024-03-02T05:37:16;34.27;;;16.63;;
5841;SDS011;2947;52.276;9.946;2024-03-02T05:39:42;33.30;;;17.77;;
5841;SDS011;2947;52.276;9.946;2024-03-02T05:42:08;32.07;;;17.37;;
5841;SDS011;2947;52.276;9.946;2024-03-02T05:44:35;36.93;;;16.10;;
5841;SDS011;2947;52.276;9.946;2024-03-02T05:47:01;29.13;;;16.03;;
5841;SDS011;2947;52.276;9.946;2024-03-02T05:49:28;30.60;;;16.17;;
5841;SDS011;2947;52.276;9.946;2024-03-02T05:51:54;31.27;;;17.00;;
5841;SDS011;2947;52.276;9.946;2024-03-02T05:54:20;27.97;;;15.97;;
5841;SDS011;2947;52.276;9.946;2024-03-02T05:56:46;32.60;;;15.83;;
5841;SDS011;2947;52.276;9.946;2024-03-02T05:59:12;29.73;;;16.10;;
5841;SDS011;2947;52.276;9.946;2024-03-02T06:01:47;31.67;;;16.10;;
5841;SDS011;2947;52.276;9.946;2024-03-02T06:04:15;34.10;;;17.30;;
5841;SDS011;2947;52.276;9.946;2024-03-02T06:06:41;33.13;;;16.63;;
5841;SDS011;2947;52.276;9.946;2024-03-02T06:09:08;33.37;;;18.50;;
5841;SDS011;2947;52.276;9.946;2024-03-02T06:11:37;31.90;;;17.70;;
5841;SDS011;2947;52.276;9.946;2024-03-02T06:14:08;33.63;;;18.00;;
5841;SDS011;2947;52.276;9.946;2024-03-02T06:16:34;32.97;;;16.57;;
5841;SDS011;2947;52.276;9.946;2024-03-02T06:19:00;32.50;;;16.00;;
5841;SDS011;2947;52.276;9.946;2024-03-02T06:21:28;34.43;;;18.30;;
5841;SDS011;2947;52.276;9.946;2024-03-02T06:23:54;30.77;;;15.27;;
5841;SDS011;2947;52.276;9.946;2024-03-02T06:26:20;33.63;;;16.70;;
5841;SDS011;2947;52.276;9.946;2024-03-02T06:28:45;32.77;;;17.40;;
5841;SDS011;2947;52.276;9.946;2024-03-02T06:31:11;28.03;;;14.60;;
5841;SDS011;2947;52.276;9.946;2024-03-02T06:33:37;32.67;;;16.90;;
5841;SDS011;2947;52.276;9.946;2024-03-02T06:36:03;28.60;;;16.00;;
5841;SDS011;2947;52.276;9.946;2024-03-02T06:38:29;31.53;;;16.20;;
5841;SDS011;2947;52.276;9.946;2024-03-02T06:40:58;31.80;;;17.20;;
5841;SDS011;2947;52.276;9.946;2024-03-02T06:43:24;30.07;;;15.60;;
5841;SDS011;2947;52.276;9.946;2024-03-02T06:45:50;28.30;;;14.73;;
5841;SDS011;2947;52.276;9.946;2024-03-02T06:48:16;28.37;;;14.90;;
5841;SDS011;2947;52.276;9.946;2024-03-02T06:50:45;31.33;;;15.63;;
5841;SDS011;2947;52.276;9.946;2024-03-02T06:53:12;34.70;;;17.30;;
5841;SDS011;2947;52.276;9.946;2024-03-02T06:55:39;31.00;;;15.30;;
5841;SDS011;2947;52.276;9.946;2024-03-02T06:58:04;30.30;;;16.10;;
5841;SDS011;2947;52.276;9.946;2024-03-02T07:00:30;28.80;;;15.30;;
5841;SDS011;2947;52.276;9.946;2024-03-02T07:02:56;32.97;;;17.30;;
5841;SDS011;2947;52.276;9.946;2024-03-02T07:05:21;33.77;;;17.73;;
5841;SDS011;2947;52.276;9.946;2024-03-02T07:07:47;30.70;;;16.50;;
5841;SDS011;2947;52.276;9.946;2024-03-02T07:10:13;31.20;;;15.33;;
5841;SDS011;2947;52.276;9.946;2024-03-02T07:12:39;33.17;;;16.50;;
5841;SDS011;2947;52.276;9.946;2024-03-02T07:15:04;32.70;;;15.60;;
5841;SDS011;2947;52.276;9.946;2024-03-02T07:17:31;30.17;;;14.30;;
5841;SDS011;2947;52.276;9.946;2024-03-02T07:19:57;29.30;;;15.37;;
5841;SDS011;2947;52.276;9.946;2024-03-02T07:22:23;29.30;;;16.00;;
5841;SDS011;2947;52.276;9.946;2024-03-02T07:24:49;26.33;;;14.33;;
5841;SDS011;2947;52.276;9.946;2024-03-02T07:27:15;25.70;;;14.80;;
5841;SDS011;2947;52.276;9.946;2024-03-02T07:29:42;30.90;;;16.23;;
5841;SDS011;2947;52.276;9.946;2024-03-02T07:32:08;29.23;;;15.73;;
5841;SDS011;2947;52.276;9.946;2024-03-02T07:34:35;34.60;;;14.50;;
5841;SDS011;2947;52.276;9.946;2024-03-02T07:37:02;30.27;;;14.57;;
5841;SDS011;2947;52.276;9.946;2024-03-02T07:39:29;27.20;;;14.13;;
5841;SDS011;2947;52.276;9.946;2024-03-02T07:41:55;28.90;;;14.83;;
5841;SDS011;2947;52.276;9.946;2024-03-02T07:44:21;25.13;;;14.60;;
5841;SDS011;2947;52.276;9.946;2024-03-02T07:46:48;25.67;;;13.80;;
5841;SDS011;2947;52.276;9.946;2024-03-02T07:49:17;28.07;;;15.70;;
5841;SDS011;2947;52.276;9.946;2024-03-02T07:51:45;28.57;;;15.30;;
5841;SDS011;2947;52.276;9.946;2024-03-02T07:54:11;29.53;;;15.40;;
5841;SDS011;2947;52.276;9.946;2024-03-02T07:56:37;27.80;;;14.87;;
5841;SDS011;2947;52.276;9.946;2024-03-02T07:59:03;28.07;;;14.77;;
5841;SDS011;2947;52.276;9.946;2024-03-02T08:01:29;26.03;;;14.67;;
5841;SDS011;2947;52.276;9.946;2024-03-02T08:04:02;29.50;;;14.13;;
5841;SDS011;2947;52.276;9.946;2024-03-02T08:06:29;24.97;;;13.60;;
5841;SDS011;2947;52.276;9.946;2024-03-02T08:08:55;25.60;;;14.80;;
5841;SDS011;2947;52.276;9.946;2024-03-02T08:11:25;24.83;;;13.40;;
5841;SDS011;2947;52.276;9.946;2024-03-02T08:13:55;30.03;;;14.80;;
5841;SDS011;2947;52.276;9.946;2024-03-02T08:16:22;25.07;;;13.90;;
5841;SDS011;2947;52.276;9.946;2024-03-02T08:18:48;33.33;;;14.27;;
5841;SDS011;2947;52.276;9.946;2024-03-02T08:21:14;28.10;;;13.90;;
5841;SDS011;2947;52.276;9.946;2024-03-02T08:23:40;25.43;;;14.47;;
5841;SDS011;2947;52.276;9.946;2024-03-02T08:26:08;23.40;;;13.03;;
5841;SDS011;2947;52.276;9.946;2024-03-02T08:28:35;24.03;;;13.13;;
5841;SDS011;2947;52.276;9.946;2024-03-02T08:31:02;26.60;;;14.00;;
5841;SDS011;2947;52.276;9.946;2024-03-02T08:33:28;23.60;;;12.60;;
5841;SDS011;2947;52.276;9.946;2024-03-02T08:35:54;21.97;;;11.60;;
5841;SDS011;2947;52.276;9.946;2024-03-02T08:38:20;24.83;;;13.70;;
5841;SDS011;2947;52.276;9.946;2024-03-02T08:40:46;24.90;;;13.27;;
5841;SDS011;2947;52.276;9.946;2024-03-02T08:43:12;22.27;;;11.67;;
5841;SDS011;2947;52.276;9.946;2024-03-02T08:45:38;25.73;;;12.20;;
5841;SDS011;2947;52.276;9.946;2024-03-02T08:48:05;24.03;;;12.57;;
5841;SDS011;2947;52.276;9.946;2024-03-02T08:50:33;24.57;;;13.17;;
5841;SDS011;2947;52.276;9.946;2024-03-02T08:53:00;23.30;;;12.60;;
5841;SDS011;2947;52.276;9.946;2024-03-02T08:55:26;24.50;;;13.10;;
5841;SDS011;2947;52.276;9.946;2024-03-02T08:57:51;22.90;;;11.90;;
5841;SDS011;2947;52.276;9.946;2024-03-02T09:00:17;23.37;;;11.90;;
5841;SDS011;2947;52.276;9.946;2024-03-02T09:02:44;22.27;;;12.67;;
5841;SDS011;2947;52.276;9.946;2024-03-02T09:05:10;20.57;;;11.63;;
5841;SDS011;2947;52.276;9.946;2024-03-02T09:07:36;20.50;;;10.83;;
5841;SDS011;2947;52.276;9.946;2024-03-02T09:10:03;23.37;;;12.40;;
5841;SDS011;2947;52.276;9.946;2024-03-02T09:12:31;22.93;;;12.30;;
5841;SDS011;2947;52.276;9.946;2024-03-02T09:14:57;23.80;;;12.23;;
5841;SDS011;2947;52.276;9.946;2024-03-02T09:17:24;21.03;;;11.50;;
5841;SDS011;2947;52.276;9.946;2024-03-02T09:19:50;19.50;;;11.00;;
5841;SDS011;2947;52.276;9.946;2024-03-02T09:22:17;21.87;;;11.20;;
5841;SDS011;2947;52.276;9.946;2024-03-02T09:24:44;22.87;;;10.73;;
5841;SDS011;2947;52.276;9.946;2024-03-02T09:27:10;19.87;;;10.33;;
5841;SDS011;2947;52.276;9.946;2024-03-02T09:29:36;20.93;;;11.97;;
5841;SDS011;2947;52.276;9.946;2024-03-02T09:32:02;20.93;;;10.77;;
5841;SDS011;2947;52.276;9.946;2024-03-02T09:34:30;19.90;;;10.83;;
5841;SDS011;2947;52.276;9.946;2024-03-02T09:36:56;21.17;;;11.13;;
5841;SDS011;2947;52.276;9.946;2024-03-02T09:39:22;18.97;;;10.27;;
5841;SDS011;2947;52.276;9.946;2024-03-02T09:41:49;19.80;;;10.43;;
5841;SDS011;2947;52.276;9.946;2024-03-02T09:44:15;18.90;;;9.60;;
5841;SDS011;2947;52.276;9.946;2024-03-02T09:46:41;17.87;;;9.87;;
5841;SDS011;2947;52.276;9.946;2024-03-02T09:49:08;14.70;;;7.57;;
5841;SDS011;2947;52.276;9.946;2024-03-02T09:51:37;15.43;;;8.73;;
5841;SDS011;2947;52.276;9.946;2024-03-02T09:54:03;17.47;;;9.17;;
5841;SDS011;2947;52.276;9.946;2024-03-02T09:56:29;20.63;;;10.37;;
5841;SDS011;2947;52.276;9.946;2024-03-02T09:58:55;17.97;;;10.27;;
5841;SDS011;2947;52.276;9.946;2024-03-02T10:01:21;18.07;;;8.60;;
5841;SDS011;2947;52.276;9.946;2024-03-02T10:03:47;18.63;;;8.80;;
5841;SDS011;2947;52.276;9.946;2024-03-02T10:06:20;22.10;;;9.27;;
5841;SDS011;2947;52.276;9.946;2024-03-02T10:08:47;17.13;;;9.07;;
5841;SDS011;2947;52.276;9.946;2024-03-02T10:11:35;15.10;;;9.20;;
5841;SDS011;2947;52.276;9.946;2024-03-02T10:14:12;18.80;;;9.83;;
5841;SDS011;2947;52.276;9.946;2024-03-02T10:16:42;17.20;;;9.60;;
5841;SDS011;2947;52.276;9.946;2024-03-02T10:19:19;20.30;;;10.30;;
5841;SDS011;2947;52.276;9.946;2024-03-02T10:21:49;22.40;;;10.55;;
5841;SDS011;2947;52.276;9.946;2024-03-02T10:24:17;21.45;;;10.35;;
5841;SDS011;2947;52.276;9.946;2024-03-02T10:26:44;18.65;;;9.57;;
5841;SDS011;2947;52.276;9.946;2024-03-02T10:29:10;20.00;;;9.90;;
5841;SDS011;2947;52.276;9.946;2024-03-02T10:31:40;17.07;;;9.80;;
5841;SDS011;2947;52.276;9.946;2024-03-02T10:34:11;17.77;;;9.90;;
5841;SDS011;2947;52.276;9.946;2024-03-02T10:36:40;17.87;;;10.37;;
5841;SDS011;2947;52.276;9.946;2024-03-02T10:39:07;17.80;;;8.82;;
5841;SDS011;2947;52.276;9.946;2024-03-02T10:41:35;16.83;;;9.73;;
5841;SDS011;2947;52.276;9.946;2024-03-02T10:44:02;18.15;;;9.60;;
5841;SDS011;2947;52.276;9.946;2024-03-02T10:46:33;15.90;;;9.00;;
5841;SDS011;2947;52.276;9.946;2024-03-02T10:49:01;18.33;;;9.63;;
5841;SDS011;2947;52.276;9.946;2024-03-02T10:51:30;18.97;;;10.00;;
5841;SDS011;2947;52.276;9.946;2024-03-02T10:54:00;17.10;;;9.17;;
5841;SDS011;2947;52.276;9.946;2024-03-02T10:56:28;16.75;;;9.00;;
5841;SDS011;2947;52.276;9.946;2024-03-02T11:02:01;16.60;;;9.55;;
5841;SDS011;2947;52.276;9.946;2024-03-02T11:04:29;13.37;;;7.73;;
5841;SDS011;2947;52.276;9.946;2024-03-02T11:07:03;16.03;;;7.70;;
5841;SDS011;2947;52.276;9.946;2024-03-02T11:09:36;13.40;;;7.80;;
5841;SDS011;2947;52.276;9.946;2024-03-02T11:12:19;19.17;;;8.82;;
5841;SDS011;2947;52.276;9.946;2024-03-02T11:14:48;15.00;;;7.63;;
5841;SDS011;2947;52.276;9.946;2024-03-02T11:17:19;17.23;;;7.85;;
5841;SDS011;2947;52.276;9.946;2024-03-02T11:19:45;18.50;;;10.80;;
5841;SDS011;2947;52.276;9.946;2024-03-02T11:22:12;14.63;;;8.93;;
5841;SDS011;2947;52.276;9.946;2024-03-02T11:24:38;15.50;;;8.60;;
5841;SDS011;2947;52.276;9.946;2024-03-02T11:27:05;15.00;;;8.40;;
5841;SDS011;2947;52.276;9.946;2024-03-02T11:32:16;16.48;;;9.30;;
5841;SDS011;2947;52.276;9.946;2024-03-02T11:34:50;15.52;;;8.73;;
5841;SDS011;2947;52.276;9.946;2024-03-02T11:37:17;14.32;;;7.90;;
5841;SDS011;2947;52.276;9.946;2024-03-02T11:39:50;18.17;;;9.45;;
5841;SDS011;2947;52.276;9.946;2024-03-02T11:42:16;17.73;;;8.50;;
5841;SDS011;2947;52.276;9.946;2024-03-02T11:44:44;13.35;;;7.40;;
5841;SDS011;2947;52.276;9.946;2024-03-02T11:47:12;15.07;;;7.40;;
5841;SDS011;2947;52.276;9.946;2024-03-02T11:49:44;15.15;;;7.50;;
5841;SDS011;2947;52.276;9.946;2024-03-02T11:52:19;11.93;;;6.53;;
5841;SDS011;2947;52.276;9.946;2024-03-02T11:54:47;15.18;;;6.88;;
5841;SDS011;2947;52.276;9.946;2024-03-02T11:57:20;13.90;;;7.97;;
5841;SDS011;2947;52.276;9.946;2024-03-02T11:59:47;11.52;;;6.57;;
5841;SDS011;2947;52.276;9.946;2024-03-02T12:02:20;11.55;;;6.80;;
5841;SDS011;2947;52.276;9.946;2024-03-02T12:04:47;13.32;;;6.70;;
5841;SDS011;2947;52.276;9.946;2024-03-02T12:07:21;12.43;;;6.82;;
5841;SDS011;2947;52.276;9.946;2024-03-02T12:10:00;13.48;;;7.00;;
5841;SDS011;2947;52.276;9.946;2024-03-02T12:12:28;13.57;;;7.53;;
5841;SDS011;2947;52.276;9.946;2024-03-02T12:14:53;13.80;;;7.75;;
5841;SDS011;2947;52.276;9.946;2024-03-02T12:17:24;11.63;;;7.05;;
5841;SDS011;2947;52.276;9.946;2024-03-02T12:19:49;13.93;;;6.40;;
5841;SDS011;2947;52.276;9.946;2024-03-02T12:22:15;12.68;;;7.55;;
5841;SDS011;2947;52.276;9.946;2024-03-02T12:24:41;14.88;;;7.57;;
5841;SDS011;2947;52.276;9.946;2024-03-02T12:27:10;10.00;;;6.30;;
5841;SDS011;2947;52.276;9.946;2024-03-02T12:29:37;16.75;;;8.45;;
5841;SDS011;2947;52.276;9.946;2024-03-02T12:32:04;13.57;;;7.38;;
5841;SDS011;2947;52.276;9.946;2024-03-02T12:34:31;15.23;;;7.50;;
5841;SDS011;2947;52.276;9.946;2024-03-02T12:36:57;16.42;;;7.20;;
5841;SDS011;2947;52.276;9.946;2024-03-02T12:39:23;12.25;;;7.18;;
5841;SDS011;2947;52.276;9.946;2024-03-02T12:41:49;13.90;;;7.43;;
5841;SDS011;2947;52.276;9.946;2024-03-02T12:44:19;11.50;;;6.20;;
5841;SDS011;2947;52.276;9.946;2024-03-02T12:46:45;11.60;;;6.50;;
5841;SDS011;2947;52.276;9.946;2024-03-02T12:49:12;26.10;;;14.43;;
5841;SDS011;2947;52.276;9.946;2024-03-02T12:51:45;39.63;;;20.52;;
5841;SDS011;2947;52.276;9.946;2024-03-02T12:54:16;21.65;;;12.27;;
5841;SDS011;2947;52.276;9.946;2024-03-02T12:56:42;10.30;;;6.32;;
5841;SDS011;2947;52.276;9.946;2024-03-02T12:59:18;9.82;;;6.20;;
5841;SDS011;2947;52.276;9.946;2024-03-02T13:01:53;11.55;;;5.80;;
5841;SDS011;2947;52.276;9.946;2024-03-02T13:04:23;10.90;;;6.20;;
5841;SDS011;2947;52.276;9.946;2024-03-02T13:06:49;8.32;;;5.18;;
5841;SDS011;2947;52.276;9.946;2024-03-02T13:09:16;11.43;;;5.10;;
5841;SDS011;2947;52.276;9.946;2024-03-02T13:11:42;9.48;;;5.10;;
5841;SDS011;2947;52.276;9.946;2024-03-02T13:14:10;9.73;;;4.72;;
5841;SDS011;2947;52.276;9.946;2024-03-02T13:16:39;7.50;;;3.90;;
5841;SDS011;2947;52.276;9.946;2024-03-02T13:19:09;8.30;;;4.80;;
5841;SDS011;2947;52.276;9.946;2024-03-02T13:21:37;9.15;;;3.95;;
5841;SDS011;2947;52.276;9.946;2024-03-02T13:24:04;7.57;;;4.43;;
5841;SDS011;2947;52.276;9.946;2024-03-02T13:26:30;7.10;;;3.95;;
5841;SDS011;2947;52.276;9.946;2024-03-02T13:28:56;10.30;;;4.45;;
5841;SDS011;2947;52.276;9.946;2024-03-02T13:31:22;7.72;;;3.58;;
5841;SDS011;2947;52.276;9.946;2024-03-02T13:33:48;7.82;;;4.38;;
5841;SDS011;2947;52.276;9.946;2024-03-02T13:36:13;6.88;;;3.97;;
5841;SDS011;2947;52.276;9.946;2024-03-02T13:38:39;7.78;;;4.47;;
5841;SDS011;2947;52.276;9.946;2024-03-02T13:41:05;8.85;;;4.28;;
5841;SDS011;2947;52.276;9.946;2024-03-02T13:43:30;9.02;;;4.57;;
5841;SDS011;2947;52.276;9.946;2024-03-02T13:45:57;6.72;;;3.60;;
5841;SDS011;2947;52.276;9.946;2024-03-02T13:48:24;7.13;;;4.25;;
5841;SDS011;2947;52.276;9.946;2024-03-02T13:50:51;8.68;;;3.97;;
5841;SDS011;2947;52.276;9.946;2024-03-02T13:53:18;10.82;;;4.20;;
5841;SDS011;2947;52.276;9.946;2024-03-02T13:55:44;6.07;;;3.55;;
5841;SDS011;2947;52.276;9.946;2024-03-02T13:58:10;9.18;;;3.80;;
5841;SDS011;2947;52.276;9.946;2024-03-02T14:00:36;7.38;;;3.78;;
5841;SDS011;2947;52.276;9.946;2024-03-02T14:03:03;6.53;;;3.58;;
5841;SDS011;2947;52.276;9.946;2024-03-02T14:05:31;8.20;;;3.40;;
5841;SDS011;2947;52.276;9.946;2024-03-02T14:07:57;6.32;;;3.13;;
5841;SDS011;2947;52.276;9.946;2024-03-02T14:10:25;7.20;;;3.53;;
5841;SDS011;2947;52.276;9.946;2024-03-02T14:12:50;7.22;;;3.55;;
5841;SDS011;2947;52.276;9.946;2024-03-02T14:15:16;5.90;;;3.58;;
5841;SDS011;2947;52.276;9.946;2024-03-02T14:17:42;8.70;;;3.35;;
5841;SDS011;2947;52.276;9.946;2024-03-02T14:20:07;5.30;;;3.05;;
5841;SDS011;2947;52.276;9.946;2024-03-02T14:22:36;9.32;;;4.35;;
5841;SDS011;2947;52.276;9.946;2024-03-02T14:25:02;7.75;;;4.65;;
5841;SDS011;2947;52.276;9.946;2024-03-02T14:27:29;8.82;;;4.28;;
5841;SDS011;2947;52.276;9.946;2024-03-02T14:29:54;11.07;;;5.22;;
5841;SDS011;2947;52.276;9.946;2024-03-02T14:32:20;7.95;;;3.78;;
5841;SDS011;2947;52.276;9.946;2024-03-02T14:34:46;9.73;;;5.03;;
5841;SDS011;2947;52.276;9.946;2024-03-02T14:37:13;9.82;;;4.68;;
5841;SDS011;2947;52.276;9.946;2024-03-02T14:39:40;9.88;;;4.40;;
5841;SDS011;2947;52.276;9.946;2024-03-02T14:42:06;8.45;;;4.45;;
5841;SDS011;2947;52.276;9.946;2024-03-02T14:44:32;9.43;;;6.50;;
5841;SDS011;2947;52.276;9.946;2024-03-02T14:46:59;8.65;;;5.20;;
5841;SDS011;2947;52.276;9.946;2024-03-02T14:49:29;11.80;;;5.22;;
5841;SDS011;2947;52.276;9.946;2024-03-02T14:51:55;8.57;;;4.97;;
5841;SDS011;2947;52.276;9.946;2024-03-02T14:54:21;10.27;;;5.85;;
5841;SDS011;2947;52.276;9.946;2024-03-02T14:56:47;9.73;;;4.95;;
5841;SDS011;2947;52.276;9.946;2024-03-02T14:59:13;10.95;;;5.65;;
5841;SDS011;2947;52.276;9.946;2024-03-02T15:01:38;10.30;;;5.30;;
5841;SDS011;2947;52.276;9.946;2024-03-02T15:04:04;8.30;;;5.38;;